Flight Track Log - Related Links

Times and Time Zones

All times are in EDT time to prevent confusion due to time zone crossing. See the SWA1535 flight status page for this flight to view local times or setup timezone preferences in your user account.

Time Position Orientation Groundspeed Altitude Reporting Facility
EDT Latitude Longitude Course Direction KTS MPH feet Rate Location/Type
Tue 10:19:32 AM 41.8333 -87.7500 37° Northeast 254 292 3,900  Level Chicago TRACON
Tue 10:21:14 AM 41.8186 -87.5856 97° East 267 307 4,700 1,134 Climbing Chicago Center
Tue 10:22:16 AM 41.8072 -87.4739 98° East 287 330 7,000 2,710 Climbing Chicago Center
Tue 10:23:18 AM 41.7956 -87.3631 98° East 299 344 10,300 3,290 Climbing Chicago Center
Tue 10:24:20 AM 41.7822 -87.2461 99° East 312 359 13,800 3,484 Climbing Chicago Center
Tue 10:25:22 AM 41.7667 -87.0961 98° East 333 383 17,500 3,435 Climbing Chicago Center
Tue 10:26:24 AM 41.7636 -86.9631 92° East 356 410 20,900 2,468 Climbing Chicago Center
Tue 10:27:26 AM 41.7653 -86.8247 89° East 369 425 22,600 1,500 Climbing Chicago Center
Tue 10:28:28 AM 41.7672 -86.6856 89° East 375 432 24,000 2,226 Climbing Chicago Center
Tue 10:29:30 AM 41.7664 -86.5294 90° East 409 471 27,200 2,758 Climbing Chicago Center
Tue 10:30:32 AM 41.7697 -86.3844 88° East 396 456 29,700 2,081 Climbing Chicago Center
Tue 10:31:34 AM 41.7750 -86.2072 88° East 396 456 31,500 1,742 Climbing Chicago Center
Tue 10:32:36 AM 41.7767 -86.0519 89° East 412 474 33,300 1,597 Climbing Chicago Center
Tue 10:33:38 AM 41.7800 -85.8953 88° East 420 483 34,800 1,306 Climbing Chicago Center
Tue 10:34:40 AM 41.7828 -85.7358 89° East 425 489 36,000 1,065 Climbing Chicago Center
Tue 10:35:42 AM 41.7847 -85.5711 89° East 437 503 37,000 1,161 Climbing Chicago Center
Tue 10:36:44 AM 41.7844 -85.4019 90° East 443 510 38,400 968 Climbing Chicago Center
Tue 10:37:46 AM 41.7886 -85.2361 88° East 437 503 39,000 330 Climbing Chicago Center
Tue 10:38:33 AM 41.7936 -85.1014 87° East 440 506 39,000  Level Cleveland Center
Tue 10:39:33 AM 41.8019 -84.9431 86° East 435 501 39,000  Level Cleveland Center
Tue 10:40:33 AM 41.8164 -84.7794 83° East 435 501 39,000  Level Cleveland Center
Tue 10:41:33 AM 41.8306 -84.6186 83° East 440 506 39,000  Level Cleveland Center
Tue 10:42:33 AM 41.8444 -84.4550 83° East 440 506 39,000  Level Cleveland Center
Tue 10:43:33 AM 41.8603 -84.2944 82° East 440 506 39,000  Level Cleveland Center
Tue 10:44:33 AM 41.8700 -84.1164 86° East 440 506 39,000  Level Cleveland Center
Tue 10:45:33 AM 41.8831 -83.9581 84° East 440 506 39,000  Level Cleveland Center
Tue 10:46:33 AM 41.8983 -83.7914 83° East 440 506 39,000  Level Cleveland Center
Tue 10:47:33 AM 41.9089 -83.6328 85° East 440 506 39,000  Level Cleveland Center
Tue 10:48:33 AM 41.9258 -83.4689 82° East 440 506 39,000  Level Cleveland Center
Tue 10:49:33 AM 41.9358 -83.3103 85° East 435 501 39,000  Level Cleveland Center
Tue 10:50:33 AM 41.9481 -83.1461 84° East 430 495 39,000  Level Cleveland Center
Tue 10:51:33 AM 41.9619 -82.9847 83° East 430 495 39,000  Level Cleveland Center
Tue 10:52:33 AM 41.9711 -82.8369 85° East 430 495 39,000  Level Cleveland Center
Tue 10:53:33 AM 41.9847 -82.6756 83° East 435 501 39,000  Level Cleveland Center
Tue 10:54:33 AM 41.9978 -82.5139 84° East 435 501 39,000  Level Cleveland Center
Tue 10:55:33 AM 42.0089 -82.3492 85° East 440 506 39,000  Level Cleveland Center
Tue 10:56:33 AM 42.0197 -82.1875 85° East 440 506 39,000  Level Cleveland Center
Tue 10:57:33 AM 42.0325 -82.0089 84° East 440 506 39,000  Level Cleveland Center
Tue 10:58:33 AM 42.0428 -81.8442 85° East 445 512 39,000  Level Cleveland Center
Tue 10:59:33 AM 42.0528 -81.6794 85° East 445 512 39,000  Level Cleveland Center
Tue 11:00:33 AM 42.0647 -81.5089 85° East 445 512 39,000  Level Cleveland Center
Tue 11:01:33 AM 42.0764 -81.3383 85° East 445 512 39,000  Level Cleveland Center
Tue 11:02:33 AM 42.0856 -81.1706 86° East 445 512 39,000  Level Cleveland Center
Tue 11:03:33 AM 42.0947 -81.0197 85° East 445 512 39,000  Level Cleveland Center
Tue 11:04:33 AM 42.1078 -80.8492 84° East 451 519 39,000  Level Cleveland Center
Tue 11:05:33 AM 42.1142 -80.6728 87° East 460 529 39,000  Level Cleveland Center
Tue 11:06:33 AM 42.1247 -80.5019 85° East 460 529 39,000  Level Cleveland Center
Tue 11:07:33 AM 42.1306 -80.3339 87° East 455 524 39,000  Level Cleveland Center
Tue 11:08:33 AM 42.1406 -80.1519 86° East 455 524 39,000  Level Cleveland Center
Tue 11:09:33 AM 42.1503 -79.9811 86° East 455 524 39,000  Level Cleveland Center
Tue 11:10:33 AM 42.1575 -79.8297 86° East 450 518 39,000  Level Cleveland Center
Tue 11:11:33 AM 42.1647 -79.6644 87° East 444 511 39,000  Level Cleveland Center
Tue 11:12:33 AM 42.1736 -79.4989 86° East 444 511 39,000  Level Cleveland Center
Tue 11:13:33 AM 42.1803 -79.3333 87° East 444 511 39,000  Level Cleveland Center
Tue 11:14:33 AM 42.1867 -79.1653 87° East 444 511 39,000  Level Cleveland Center
Tue 11:15:33 AM 42.2056 -79.0022 81° East 444 511 39,000  Level Cleveland Center
Tue 11:16:33 AM 42.2278 -78.8194 81° East 444 511 39,000  Level Cleveland Center
Tue 11:17:33 AM 42.2481 -78.6533 81° East 444 511 39,000  Level Cleveland Center
Tue 11:18:33 AM 42.2703 -78.4869 80° East 449 517 39,000  Level Cleveland Center
Tue 11:19:33 AM 42.2900 -78.3208 81° East 449 517 39,000  Level Cleveland Center
Tue 11:20:33 AM 42.3117 -78.1517 80° East 449 517 39,000  Level Cleveland Center
Tue 11:21:33 AM 42.3308 -77.9850 81° East 449 517 39,000  Level Cleveland Center
Tue 11:22:33 AM 42.3500 -77.8186 81° East 449 517 39,000  Level Cleveland Center
Tue 11:23:33 AM 42.3689 -77.6519 81° East 449 517 39,000  Level Cleveland Center
Tue 11:24:33 AM 42.3894 -77.4878 80° East 449 517 39,000  Level Cleveland Center
Tue 11:25:33 AM 42.4058 -77.3211 82° East 449 517 39,000  Level Cleveland Center
Tue 11:26:33 AM 42.4244 -77.1739 80° East 444 511 39,000  Level Cleveland Center
Tue 11:28:25 AM 42.4581 -76.8647 82° East 442 509 39,000  Level Boston Center
Tue 11:29:25 AM 42.4747 -76.6969 82° East 442 509 39,000  Level Boston Center
Tue 11:30:26 AM 42.4933 -76.5319 81° East 442 509 39,000  Level Boston Center
Tue 11:31:26 AM 42.4889 -76.3628 92° East 442 509 39,000  Level Boston Center
Tue 11:32:26 AM 42.4803 -76.1903 94° East 442 509 39,000  Level Boston Center
Tue 11:33:26 AM 42.4711 -76.0236 94° East 442 509 39,000  Level Boston Center
Tue 11:34:26 AM 42.4581 -75.8342 95° East 452 520 39,000  Level Boston Center
Tue 11:35:26 AM 42.4483 -75.6647 94° East 452 520 39,000  Level Boston Center
Tue 11:36:26 AM 42.4383 -75.4983 95° East 446 513 39,000  Level Boston Center
Tue 11:37:26 AM 42.4281 -75.3347 95° East 446 513 39,000 -353 Level Boston Center
Tue 11:38:25 AM 42.4178 -75.1653 95° East 446 513 38,300 -1,109 Descending Boston Center
Tue 11:39:25 AM 42.4069 -74.9961 95° East 446 513 36,800 -1,983 Descending Boston Center
Tue 11:40:26 AM 42.3961 -74.8269 95° East 446 513 34,300 -2,750 Descending Boston Center
Tue 11:41:25 AM 42.3831 -74.6550 96° East 446 513 31,300 -2,672 Descending Boston Center
Tue 11:42:25 AM 42.3736 -74.4917 94° East 446 513 29,000 -1,150 Descending Boston Center
Tue 11:43:25 AM 42.3617 -74.3283 96° East 441 507 29,000 -150 Level Boston Center
Tue 11:44:25 AM 42.3497 -74.1622 96° East 441 507 28,700 -650 Descending Boston Center
Tue 11:45:25 AM 42.3375 -73.9989 96° East 441 507 27,700 -992 Descending Boston Center
Tue 11:46:26 AM 42.3250 -73.8386 96° East 441 507 26,700 -1,000 Descending Boston Center
Tue 11:47:25 AM 42.3164 -73.6839 94° East 447 514 25,700 -1,050 Descending Boston Center
Tue 11:48:26 AM 42.3033 -73.5292 96° East 441 507 24,600 -1,041 Descending Boston Center
Tue 11:49:26 AM 42.2944 -73.3747 94° East 423 487 23,600 -1,000 Descending Boston Center
Tue 11:50:26 AM 42.2767 -73.2397 100° East 394 453 22,600 -1,000 Descending Boston Center
Tue 11:51:26 AM 42.2400 -73.1019 110° East 387 445 21,600 -958 Descending Boston Center
Tue 11:52:25 AM 42.1614 -72.9947 135° Southeast 378 435 20,700 -958 Descending Boston Center
Tue 11:53:25 AM 42.0889 -72.8933 134° Southeast 383 441 19,700 -843 Descending Boston Center
Tue 11:54:26 AM 42.0142 -72.7922 135° Southeast 383 441 19,000 -347 Descending Boston Center
Tue 11:55:26 AM 41.9417 -72.6942 135° Southeast 378 435 19,000 -600 Level Boston Center
Tue 11:56:26 AM 41.8750 -72.5683 125° Southeast 378 435 17,800 -1,361 Descending Boston Center
Tue 11:57:25 AM 41.8211 -72.4736 127° Southeast 365 420 16,300 -1,815 Descending Boston Center
Tue 11:58:25 AM 41.7586 -72.3594 126° Southeast 358 412 14,200 -1,929 Descending Boston Center
Tue 11:59:17 AM 41.7083 -72.2789 130° Southeast 336 387 12,700 -1,537 Descending Boston Center
Tue 12:00:26 PM 41.6561 -72.1761 124° Southeast 337 388 11,100 -836 Descending Boston Center
Tue 12:01:19 PM 41.6078 -72.0931 128° Southeast 307 353 11,000 -414 Descending Boston Center
Tue 12:02:22 PM 41.5597 -72.0072 127° Southeast 291 335 10,300 -1,252 Descending Boston Center
Tue 12:03:14 PM 41.5281 -71.9217 116° Southeast 283 326 8,600 -1,796 Descending Boston Center
Tue 12:04:39 PM 41.4919 -71.7778 108° East 270 311 6,200 -1,697 Descending Boston Center
Tue 12:05:39 PM 41.5183 -71.6944 67° East 261 300 4,500 -1,722 Descending Boston Center
Tue 12:06:34 PM 41.5472 -71.6164 64° Northeast 252 290 2,900 -1,241 Descending Boston Center
Tue 12:07:35 PM 41.5903 -71.5492 49° Northeast 242 278 2,100 -496 Descending Boston Center
Tue 12:08:35 PM 41.6358 -71.5042 36° Northeast 209 241 1,900 -496 Descending Boston Center
Tue 12:09:36 PM 41.6711 -71.4731 33° Northeast 163 188 1,100 -393 Descending Boston Center
Tue 12:10:37 PM 41.6833 -71.4561 46° Northeast 163 188 1,100  Level Boston Center
Tue 12:11:31 PM 41.6833 -71.4561 346° North 163 188 1,100  Level Boston Center

Login

Don't have an account? Register now (free) for customized features, flight alerts, and more!